createdAt,value
2022-08-04T00:00:15.696Z,72.95
2022-08-04T00:01:15.718Z,73.44
2022-08-04T00:02:15.741Z,73.14
2022-08-04T00:03:15.669Z,73.14
2022-08-04T00:04:15.661Z,73.25
2022-08-04T00:05:15.654Z,73.14
2022-08-04T00:06:15.642Z,73.14
2022-08-04T00:07:15.633Z,73.25
2022-08-04T00:08:15.730Z,73.14
2022-08-04T00:09:15.619Z,73.14
2022-08-04T00:10:15.629Z,73.14
2022-08-04T00:11:15.842Z,73.25
2022-08-04T00:12:15.595Z,73.65
2022-08-04T00:13:15.585Z,73.25
2022-08-04T00:14:15.605Z,73.55
2022-08-04T00:15:16.491Z,73.55
2022-08-04T00:16:15.565Z,75.27
2022-08-04T00:17:15.551Z,74.64
2022-08-04T00:18:15.552Z,73.44
2022-08-04T00:19:15.587Z,73.68
2022-08-04T00:20:15.535Z,73.68
2022-08-04T00:21:15.544Z,74.94
2022-08-04T00:22:15.513Z,76.54
2022-08-04T00:23:15.503Z,76.41
2022-08-04T00:24:15.503Z,77.11
2022-08-04T00:25:15.497Z,78.70
2022-08-04T00:26:15.485Z,78.24
2022-08-04T00:27:15.474Z,78.60
2022-08-04T00:28:15.471Z,78.34
2022-08-04T00:29:15.499Z,79.54
2022-08-04T00:30:15.477Z,79.24
2022-08-04T00:31:15.974Z,79.38
2022-08-04T00:32:15.436Z,80.27
2022-08-04T00:33:15.428Z,79.48
2022-08-04T00:34:15.473Z,81.18
2022-08-04T00:35:15.407Z,81.12
2022-08-04T00:36:15.404Z,81.01
2022-08-04T00:37:15.394Z,82.31
2022-08-04T00:38:15.390Z,81.61
2022-08-04T00:39:15.413Z,81.31
2022-08-04T00:40:15.373Z,82.01
2022-08-04T00:41:15.384Z,82.75
2022-08-04T00:42:15.354Z,81.75
2022-08-04T00:43:15.347Z,81.01
2022-08-04T00:44:15.338Z,82.21
2022-08-04T00:45:15.337Z,82.11
2022-08-04T00:46:17.282Z,82.35
2022-08-04T00:47:15.311Z,81.95
2022-08-04T00:48:15.308Z,82.25
2022-08-04T00:49:15.298Z,82.15
2022-08-04T00:50:15.290Z,82.45
2022-08-04T00:51:15.310Z,83.65
2022-08-04T00:52:32.054Z,83.59
2022-08-04T00:53:15.263Z,83.73
2022-08-04T00:54:15.260Z,83.53
2022-08-04T00:55:15.273Z,83.93
2022-08-04T00:56:15.241Z,83.73
2022-08-04T00:57:29.975Z,83.63
2022-08-04T00:58:15.225Z,84.13
2022-08-04T00:59:15.218Z,83.73
2022-08-04T01:00:15.260Z,83.63
2022-08-04T01:01:15.219Z,84.13
2022-08-04T01:02:15.190Z,83.63
2022-08-04T01:03:15.183Z,84.03
2022-08-04T01:04:15.183Z,83.23
2022-08-04T01:05:15.162Z,83.93
2022-08-04T01:06:15.191Z,83.03
2022-08-04T01:07:15.151Z,83.63
2022-08-04T01:08:15.142Z,83.53
2022-08-04T01:09:21.202Z,83.63
2022-08-04T01:10:17.540Z,83.73
2022-08-04T01:11:15.161Z,84.33
2022-08-04T01:12:15.106Z,83.73
2022-08-04T01:13:15.670Z,84.07
2022-08-04T01:14:15.109Z,83.93
2022-08-04T01:15:15.079Z,83.73
2022-08-04T01:16:15.104Z,82.73
2022-08-04T01:17:15.107Z,82.83
2022-08-04T01:18:15.063Z,83.13
2022-08-04T01:19:15.051Z,82.93
2022-08-04T01:20:15.043Z,83.63
2022-08-04T01:21:15.033Z,84.23
2022-08-04T01:22:15.049Z,84.53
2022-08-04T01:23:15.011Z,84.47
2022-08-04T01:24:15.007Z,84.57
2022-08-04T01:25:14.994Z,85.27
2022-08-04T01:26:43.454Z,85.71
2022-08-04T01:27:15.056Z,85.71
2022-08-04T01:28:14.976Z,85.41
2022-08-04T01:29:16.026Z,85.61
2022-08-04T01:30:14.961Z,84.47
2022-08-04T01:31:14.947Z,83.37
2022-08-04T01:32:14.938Z,83.67
2022-08-04T01:33:14.953Z,84.47
2022-08-04T01:34:14.961Z,83.77
2022-08-04T01:35:21.776Z,84.17
2022-08-04T01:36:14.926Z,85.17
2022-08-04T01:37:14.893Z,84.37
2022-08-04T01:38:18.292Z,84.81
2022-08-04T01:39:14.990Z,85.31
2022-08-04T01:40:14.877Z,85.91
2022-08-04T01:41:14.857Z,86.71
2022-08-04T01:42:31.551Z,85.71
2022-08-04T01:43:14.843Z,85.91
2022-08-04T01:44:14.836Z,84.31
2022-08-04T01:45:14.852Z,85.31
2022-08-04T01:46:14.817Z,85.21
2022-08-04T01:47:14.806Z,85.68
2022-08-04T01:48:14.797Z,85.37
2022-08-04T01:49:14.790Z,85.27
2022-08-04T01:50:14.839Z,84.97
2022-08-04T01:51:14.771Z,84.97
2022-08-04T01:52:14.767Z,85.27
2022-08-04T01:53:14.751Z,84.77
2022-08-04T01:54:14.766Z,85.68
2022-08-04T01:55:14.734Z,85.61
2022-08-04T01:56:14.758Z,84.31
2022-08-04T01:57:37.748Z,85.51
2022-08-04T01:58:14.708Z,85.11
2022-08-04T01:59:14.699Z,85.31
2022-08-04T02:00:14.697Z,85.82
2022-08-04T02:01:14.805Z,86.71
2022-08-04T02:02:14.791Z,86.61
2022-08-04T02:03:14.665Z,86.91
2022-08-04T02:04:21.024Z,86.21
2022-08-04T02:05:14.648Z,85.41
2022-08-04T02:06:14.682Z,85.61
2022-08-04T02:07:14.646Z,85.41
2022-08-04T02:08:14.624Z,85.61
2022-08-04T02:09:14.616Z,86.52
2022-08-04T02:10:14.605Z,86.01
2022-08-04T02:11:14.598Z,85.91
2022-08-04T02:12:16.183Z,86.96
2022-08-04T02:13:14.613Z,87.36
2022-08-04T02:14:14.572Z,87.05
2022-08-04T02:15:14.561Z,87.36
2022-08-04T02:16:14.560Z,87.46
2022-08-04T02:17:14.564Z,85.35
2022-08-04T02:18:14.535Z,85.71
2022-08-04T02:19:14.752Z,85.51
2022-08-04T02:20:14.530Z,85.61
2022-08-04T02:21:14.536Z,85.41
2022-08-04T02:22:14.498Z,86.32
2022-08-04T02:23:14.496Z,85.41
2022-08-04T02:24:14.482Z,84.77
2022-08-04T02:25:14.475Z,84.91
2022-08-04T02:26:22.794Z,85.31
2022-08-04T02:27:14.456Z,86.01
2022-08-04T02:28:14.478Z,85.97
2022-08-04T02:29:14.474Z,84.71
2022-08-04T02:30:14.427Z,84.87
2022-08-04T02:31:14.421Z,85.17
2022-08-04T02:32:14.410Z,84.17
2022-08-04T02:33:14.406Z,85.07
2022-08-04T02:34:14.394Z,84.87
2022-08-04T02:35:14.387Z,85.51
2022-08-04T02:36:14.375Z,85.51
2022-08-04T02:37:14.371Z,85.61
2022-08-04T02:38:14.620Z,87.41
2022-08-04T02:39:14.393Z,86.61
2022-08-04T02:40:14.344Z,86.52
2022-08-04T02:41:14.331Z,86.76
2022-08-04T02:42:14.327Z,85.61
2022-08-04T02:43:14.316Z,85.51
2022-08-04T02:44:14.332Z,86.61
2022-08-04T02:45:14.329Z,86.11
2022-08-04T02:46:17.666Z,86.82
2022-08-04T02:47:14.293Z,86.71
2022-08-04T02:48:29.824Z,86.21
2022-08-04T02:49:14.293Z,85.61
2022-08-04T02:50:14.254Z,85.91
2022-08-04T02:51:14.253Z,86.71
2022-08-04T02:52:14.229Z,86.35
2022-08-04T02:53:14.229Z,87.05
2022-08-04T02:54:14.241Z,87.05
2022-08-04T02:55:14.234Z,87.36
2022-08-04T02:56:14.197Z,87.36
2022-08-04T02:57:14.231Z,87.16
2022-08-04T02:58:14.178Z,87.16
2022-08-04T02:59:14.172Z,87.05
2022-08-04T03:00:14.197Z,86.66
2022-08-04T03:01:14.177Z,87.05
2022-08-04T03:02:14.142Z,87.16
2022-08-04T03:03:14.137Z,87.36
2022-08-04T03:04:22.131Z,87.21
2022-08-04T03:05:14.119Z,87.46
2022-08-04T03:06:14.178Z,87.52
2022-08-04T03:07:14.410Z,86.91
2022-08-04T03:08:14.088Z,87.02
2022-08-04T03:09:14.084Z,87.12
2022-08-04T03:10:14.070Z,86.91
2022-08-04T03:11:14.066Z,87.76
2022-08-04T03:12:14.111Z,86.91
2022-08-04T03:13:14.052Z,87.52
2022-08-04T03:14:14.036Z,87.21
2022-08-04T03:15:14.032Z,85.91
2022-08-04T03:16:14.021Z,86.71
2022-08-04T03:17:14.013Z,87.12
2022-08-04T03:18:14.162Z,87.32
2022-08-04T03:19:13.997Z,87.12
2022-08-04T03:20:13.985Z,87.41
2022-08-04T03:21:13.976Z,87.41
2022-08-04T03:22:13.964Z,87.32
2022-08-04T03:23:14.333Z,87.02
2022-08-04T03:24:17.029Z,87.52
2022-08-04T03:25:13.942Z,87.41
2022-08-04T03:26:13.931Z,87.41
2022-08-04T03:27:13.927Z,87.46
2022-08-04T03:28:13.916Z,87.55
2022-08-04T03:29:13.945Z,87.82
2022-08-04T03:30:13.912Z,87.76
2022-08-04T03:31:13.894Z,87.76
2022-08-04T03:32:13.876Z,87.66
2022-08-04T03:33:13.874Z,87.46
2022-08-04T03:34:13.866Z,87.46
2022-08-04T03:35:13.860Z,88.06
2022-08-04T03:36:13.854Z,87.46
2022-08-04T03:37:13.838Z,86.91
2022-08-04T03:38:13.826Z,86.21
2022-08-04T03:39:13.840Z,87.41
2022-08-04T03:40:13.835Z,87.12
2022-08-04T03:41:13.803Z,86.61
2022-08-04T03:42:16.024Z,86.82
2022-08-04T03:43:57.374Z,86.18
2022-08-04T03:44:13.771Z,85.82
2022-08-04T03:45:23.184Z,86.61
2022-08-04T03:46:13.757Z,87.21
2022-08-04T03:47:13.817Z,86.41
2022-08-04T03:48:13.732Z,85.77
2022-08-04T03:49:13.731Z,85.97
2022-08-04T03:50:13.722Z,86.57
2022-08-04T03:51:35.055Z,86.07
2022-08-04T03:52:13.763Z,87.07
2022-08-04T03:53:13.716Z,86.98
2022-08-04T03:54:13.685Z,87.21
2022-08-04T03:55:13.677Z,87.07
2022-08-04T03:56:13.665Z,87.27
2022-08-04T03:57:13.663Z,87.71
2022-08-04T03:58:13.650Z,88.18
2022-08-04T03:59:13.639Z,88.12
2022-08-04T04:00:13.628Z,88.02
2022-08-04T04:01:13.625Z,88.02
2022-08-04T04:02:13.662Z,88.71
2022-08-04T04:03:13.617Z,88.26
2022-08-04T04:04:13.653Z,88.32
2022-08-04T04:05:13.596Z,88.71
2022-08-04T04:06:15.091Z,87.32
2022-08-04T04:07:14.330Z,87.41
2022-08-04T04:08:18.739Z,86.61
2022-08-04T04:09:16.297Z,87.52
2022-08-04T04:10:13.581Z,88.12
2022-08-04T04:11:13.542Z,88.42
2022-08-04T04:12:13.528Z,87.92
2022-08-04T04:13:13.520Z,88.42
2022-08-04T04:14:13.510Z,88.86
2022-08-04T04:15:13.504Z,88.36
2022-08-04T04:16:13.533Z,88.32
2022-08-04T04:17:13.515Z,88.76
2022-08-04T04:18:13.471Z,88.86
2022-08-04T04:19:13.466Z,88.86
2022-08-04T04:20:13.455Z,88.86
2022-08-04T04:21:13.444Z,88.96
2022-08-04T04:22:13.482Z,88.86
2022-08-04T04:23:13.429Z,88.36
2022-08-04T04:24:13.419Z,87.96
2022-08-04T04:25:13.412Z,88.86
2022-08-04T04:26:13.398Z,88.96
2022-08-04T04:27:13.476Z,88.76
2022-08-04T04:28:46.490Z,89.06
2022-08-04T04:29:13.375Z,88.76
2022-08-04T04:30:13.361Z,88.76
2022-08-04T04:31:13.360Z,88.96
2022-08-04T04:32:13.352Z,89.02
2022-08-04T04:33:13.340Z,89.02
2022-08-04T04:34:13.329Z,88.96
2022-08-04T04:35:13.323Z,89.26
2022-08-04T04:36:13.348Z,89.16
2022-08-04T04:37:13.369Z,89.36
2022-08-04T04:38:13.293Z,89.76
2022-08-04T04:39:13.362Z,89.56
2022-08-04T04:40:13.276Z,89.56
2022-08-04T04:41:13.267Z,89.66
2022-08-04T04:42:13.259Z,90.46
2022-08-04T04:43:13.251Z,90.31
2022-08-04T04:44:13.239Z,91.01
2022-08-04T04:45:13.235Z,91.01
2022-08-04T04:46:15.313Z,91.01
2022-08-04T04:47:13.244Z,91.01
2022-08-04T04:48:13.205Z,91.11
2022-08-04T04:49:13.196Z,91.06
2022-08-04T04:50:13.213Z,90.20
2022-08-04T04:51:13.177Z,90.86
2022-08-04T04:52:13.166Z,91.41
2022-08-04T04:53:13.162Z,90.91
2022-08-04T04:54:13.167Z,91.81
2022-08-04T04:55:13.173Z,91.51
2022-08-04T04:56:13.136Z,91.91
2022-08-04T04:57:13.139Z,91.71
2022-08-04T04:58:13.114Z,91.61
2022-08-04T04:59:13.106Z,91.51
2022-08-04T05:00:13.100Z,91.61
2022-08-04T05:01:13.093Z,91.47
2022-08-04T05:02:13.076Z,91.77
2022-08-04T05:03:13.074Z,91.47
2022-08-04T05:04:13.063Z,91.61
2022-08-04T05:05:13.055Z,91.77
2022-08-04T05:06:13.109Z,91.56
2022-08-04T05:07:13.070Z,91.91
2022-08-04T05:08:43.339Z,91.81
2022-08-04T05:09:13.021Z,91.56
2022-08-04T05:10:13.006Z,91.77
2022-08-04T05:11:13.008Z,92.16
2022-08-04T05:14:32.063Z,91.81
2022-08-04T05:14:35.656Z,92.21
2022-08-04T05:14:36.438Z,92.01
2022-08-04T05:15:12.966Z,92.11
2022-08-04T05:16:12.952Z,91.36
2022-08-04T05:17:12.986Z,91.77
2022-08-04T05:18:12.954Z,91.56
2022-08-04T05:19:12.944Z,90.96
2022-08-04T05:20:12.917Z,91.36
2022-08-04T05:21:12.910Z,91.77
2022-08-04T05:22:14.809Z,91.66
2022-08-04T05:23:12.897Z,91.66
2022-08-04T05:24:12.887Z,92.16
2022-08-04T05:25:12.878Z,92.07
2022-08-04T05:26:12.861Z,91.66
2022-08-04T05:27:12.950Z,91.56
2022-08-04T05:28:12.858Z,91.12
2022-08-04T05:29:12.841Z,91.47
2022-08-04T05:30:12.827Z,91.36
2022-08-04T05:31:12.826Z,90.77
2022-08-04T05:32:12.816Z,91.02
2022-08-04T05:33:12.843Z,91.42
2022-08-04T05:34:12.792Z,90.12
2022-08-04T05:35:12.790Z,91.12
2022-08-04T05:36:18.418Z,90.92
2022-08-04T05:37:12.854Z,90.12
2022-08-04T05:38:12.812Z,90.92
2022-08-04T05:39:12.820Z,90.86
2022-08-04T05:40:12.743Z,90.96
2022-08-04T05:41:12.733Z,91.12
2022-08-04T05:42:12.723Z,90.42
2022-08-04T05:43:12.741Z,90.32
2022-08-04T05:44:12.759Z,90.62
2022-08-04T05:45:12.697Z,90.12
2022-08-04T05:46:12.695Z,90.42
2022-08-04T05:47:12.685Z,91.32
2022-08-04T05:48:12.669Z,90.42
2022-08-04T05:49:20.465Z,89.62
2022-08-04T05:50:12.654Z,89.42
2022-08-04T05:51:12.642Z,90.42
2022-08-04T05:52:12.637Z,90.02
2022-08-04T05:53:12.630Z,90.62
2022-08-04T05:54:12.616Z,90.82
2022-08-04T05:55:12.641Z,90.72
2022-08-04T05:56:12.664Z,90.92
2022-08-04T05:57:12.592Z,91.32
2022-08-04T05:58:12.583Z,90.62
2022-08-04T05:59:12.576Z,91.02
2022-08-04T06:00:39.070Z,91.82
2022-08-04T06:01:12.558Z,91.52
2022-08-04T06:02:12.592Z,91.42
2022-08-04T06:03:12.543Z,92.12
2022-08-04T06:04:12.530Z,91.92
2022-08-04T06:05:12.523Z,91.42
2022-08-04T06:06:12.512Z,90.72
2022-08-04T06:07:12.510Z,90.92
2022-08-04T06:08:14.063Z,90.12
2022-08-04T06:09:12.494Z,90.22
2022-08-04T06:10:12.487Z,90.28
2022-08-04T06:11:12.500Z,90.08
2022-08-04T06:12:12.483Z,90.08
2022-08-04T06:13:48.150Z,89.28
2022-08-04T06:14:12.442Z,90.08
2022-08-04T06:15:12.438Z,90.23
2022-08-04T06:16:28.994Z,89.23
2022-08-04T06:18:32.397Z,89.23
2022-08-04T06:19:57.270Z,88.83
2022-08-04T06:20:03.667Z,90.13
2022-08-04T06:20:19.168Z,89.64
2022-08-04T06:21:15.912Z,89.43
2022-08-04T06:22:12.411Z,89.43
2022-08-04T06:23:12.368Z,89.73
2022-08-04T06:24:12.356Z,89.14
2022-08-04T06:25:12.352Z,89.23
2022-08-04T06:26:12.338Z,89.83
2022-08-04T06:27:12.375Z,91.53
2022-08-04T06:28:12.324Z,91.89
2022-08-04T06:29:12.319Z,91.93
2022-08-04T06:30:12.303Z,91.69
2022-08-04T06:32:27.478Z,91.59
2022-08-04T06:32:29.490Z,91.93
2022-08-04T06:33:12.282Z,91.24
2022-08-04T06:34:12.274Z,88.69
2022-08-04T06:35:12.271Z,89.49
2022-08-04T06:36:12.285Z,89.79
2022-08-04T06:37:12.276Z,90.19
2022-08-04T06:38:12.242Z,90.29
2022-08-04T06:39:12.274Z,89.99
2022-08-04T06:40:29.904Z,89.89
2022-08-04T06:41:12.217Z,88.59
2022-08-04T06:42:22.178Z,88.59
2022-08-04T06:43:12.196Z,88.43
2022-08-04T06:44:12.192Z,89.14
2022-08-04T06:45:12.178Z,88.99
2022-08-04T06:46:12.177Z,89.69
2022-08-04T06:47:13.794Z,88.89
2022-08-04T06:48:12.192Z,88.99
2022-08-04T06:49:12.144Z,88.69
2022-08-04T06:51:26.165Z,89.29
2022-08-04T06:51:28.204Z,89.59
2022-08-04T06:52:12.122Z,89.19
2022-08-04T06:53:12.121Z,89.59
2022-08-04T06:54:12.106Z,89.39
2022-08-04T06:55:12.118Z,87.65
2022-08-04T06:56:12.086Z,87.55
2022-08-04T06:57:12.079Z,88.65
2022-08-04T06:58:12.073Z,87.85
2022-08-04T06:59:12.085Z,89.05
2022-08-04T07:00:12.059Z,87.35
2022-08-04T07:01:12.046Z,87.85
2022-08-04T07:02:12.084Z,87.21
2022-08-04T07:03:12.030Z,88.51
2022-08-04T07:04:12.024Z,87.30
2022-08-04T07:05:12.012Z,87.21
2022-08-04T07:06:14.550Z,86.31
2022-08-04T07:07:11.997Z,84.71
2022-08-04T07:08:11.987Z,84.01
2022-08-04T07:09:11.981Z,86.36
2022-08-04T07:10:11.974Z,85.11
2022-08-04T07:11:12.019Z,84.37
2022-08-04T07:12:11.958Z,84.17
2022-08-04T07:13:11.951Z,85.67
2022-08-04T07:14:11.939Z,83.97
2022-08-04T07:15:14.315Z,84.67
2022-08-04T07:16:11.961Z,84.17
2022-08-04T07:17:11.912Z,83.97
2022-08-04T07:18:11.908Z,85.47
2022-08-04T07:19:13.829Z,84.23
2022-08-04T07:20:11.890Z,86.43
2022-08-04T07:21:11.890Z,85.23
2022-08-04T07:22:24.811Z,85.33
2022-08-04T07:23:11.869Z,84.13
2022-08-04T07:24:11.869Z,83.83
2022-08-04T07:25:12.974Z,83.23
2022-08-04T07:26:13.428Z,83.63
2022-08-04T07:27:11.862Z,85.28
2022-08-04T07:28:11.830Z,84.19
2022-08-04T07:29:11.858Z,83.23
2022-08-04T07:30:11.809Z,84.23
2022-08-04T07:31:33.421Z,84.09
2022-08-04T07:32:11.805Z,83.19
2022-08-04T07:33:11.791Z,83.00
2022-08-04T07:34:17.276Z,83.49
2022-08-04T07:35:20.040Z,81.79
2022-08-04T07:36:11.997Z,81.60
2022-08-04T07:37:11.763Z,82.26
2022-08-04T07:38:11.747Z,82.15
2022-08-04T07:39:11.851Z,82.06
2022-08-04T07:40:11.736Z,81.66
2022-08-04T07:42:11.715Z,83.35
2022-08-04T07:43:11.747Z,82.95
2022-08-04T07:44:11.702Z,85.69
2022-08-04T07:45:11.693Z,82.79
2022-08-04T07:46:11.683Z,81.99
2022-08-04T07:47:11.687Z,82.45
2022-08-04T07:48:11.669Z,82.75
2022-08-04T07:49:11.703Z,81.76
2022-08-04T07:50:11.696Z,80.52
2022-08-04T07:51:11.646Z,82.02
2022-08-04T07:52:11.638Z,81.12
2022-08-04T07:53:55.596Z,79.72
2022-08-04T07:54:11.625Z,79.82
2022-08-04T07:55:11.622Z,80.32
2022-08-04T07:56:11.650Z,81.32
2022-08-04T07:57:20.974Z,80.92
2022-08-04T07:58:11.591Z,81.12
2022-08-04T07:59:11.615Z,80.92
2022-08-04T08:00:11.578Z,79.52
2022-08-04T08:01:11.576Z,81.02
2022-08-04T08:02:11.576Z,81.38
2022-08-04T08:03:11.645Z,79.49
2022-08-04T08:04:11.553Z,79.58
2022-08-04T08:05:11.568Z,78.59
2022-08-04T08:06:30.331Z,77.50
2022-08-04T08:07:11.529Z,76.96
2022-08-04T08:08:11.588Z,77.99
2022-08-04T08:09:13.595Z,77.36
2022-08-04T08:10:11.512Z,77.56
2022-08-04T08:11:11.495Z,76.56
2022-08-04T08:12:37.804Z,78.55
2022-08-04T08:13:11.482Z,77.46
2022-08-04T08:14:11.502Z,77.06
2022-08-04T08:15:11.730Z,77.52
2022-08-04T08:16:11.460Z,77.72
2022-08-04T08:17:11.459Z,78.31
2022-08-04T08:18:11.498Z,78.12
2022-08-04T08:19:11.465Z,78.22
2022-08-04T08:20:11.454Z,76.98
2022-08-04T08:21:11.429Z,77.48
2022-08-04T08:22:11.416Z,77.68
2022-08-04T08:23:11.417Z,76.06
2022-08-04T08:24:11.430Z,74.37
2022-08-04T08:25:11.408Z,75.06
2022-08-04T08:26:11.422Z,75.36
2022-08-04T08:27:11.385Z,75.46
2022-08-04T08:28:11.371Z,74.96
2022-08-04T08:29:11.366Z,74.52
2022-08-04T08:30:11.355Z,76.06
2022-08-04T08:31:11.356Z,74.23
2022-08-04T08:32:11.345Z,74.52
2022-08-04T08:33:11.338Z,73.33
2022-08-04T08:34:11.328Z,75.12
2022-08-04T08:35:11.327Z,75.52
2022-08-04T08:36:11.327Z,74.93
2022-08-04T08:37:11.362Z,74.59
2022-08-04T08:38:11.306Z,73.76
2022-08-04T08:39:11.332Z,73.76
2022-08-04T08:40:11.287Z,74.16
2022-08-04T08:41:11.290Z,72.77
2022-08-04T08:42:11.274Z,71.88
2022-08-04T08:44:04.774Z,71.97
2022-08-04T08:44:11.258Z,71.78
2022-08-04T08:45:11.261Z,72.67
2022-08-04T08:46:11.262Z,72.97
2022-08-04T08:47:11.244Z,73.76
2022-08-04T08:48:11.257Z,72.93
2022-08-04T08:49:11.265Z,72.24
2022-08-04T08:50:11.223Z,70.25
2022-08-04T08:51:11.233Z,68.07
2022-08-04T08:52:11.219Z,68.66
2022-08-04T08:53:11.204Z,69.56
2022-08-04T08:54:11.194Z,69.16
2022-08-04T08:55:11.275Z,67.77
2022-08-04T08:56:11.181Z,69.53
2022-08-04T08:57:11.176Z,66.45
2022-08-04T08:58:11.169Z,68.43
2022-08-04T08:59:15.242Z,69.72
2022-08-04T09:00:11.158Z,68.04
2022-08-04T09:01:11.298Z,69.32
2022-08-04T09:02:11.143Z,68.20
2022-08-04T09:03:11.144Z,66.71
2022-08-04T09:04:11.131Z,67.31
2022-08-04T09:05:11.126Z,67.80
2022-08-04T09:06:11.117Z,67.50
2022-08-04T09:07:11.143Z,68.01
2022-08-04T09:08:11.105Z,67.77
2022-08-04T09:09:11.122Z,68.27
2022-08-04T09:10:11.092Z,66.39
2022-08-04T09:11:11.090Z,68.17
2022-08-04T09:12:11.108Z,68.66
2022-08-04T09:13:11.087Z,68.37
2022-08-04T09:14:11.075Z,68.07
2022-08-04T09:15:11.084Z,67.77
2022-08-04T09:16:11.064Z,65.59
2022-08-04T09:17:11.054Z,64.47
2022-08-04T09:18:11.070Z,63.18
2022-08-04T09:19:22.696Z,62.26
2022-08-04T09:20:11.055Z,61.54
2022-08-04T09:21:11.035Z,61.41
2022-08-04T09:22:12.764Z,61.91
2022-08-04T09:23:11.050Z,62.10
2022-08-04T09:24:36.480Z,62.60
2022-08-04T09:25:11.049Z,60.82
2022-08-04T09:26:11.002Z,62.17
2022-08-04T09:27:10.998Z,62.66
2022-08-04T09:28:10.991Z,63.85
2022-08-04T09:29:11.005Z,62.63
2022-08-04T09:30:11.016Z,59.01
2022-08-04T09:31:10.979Z,57.70
2022-08-04T09:32:10.985Z,57.45
2022-08-04T09:33:11.000Z,59.71
2022-08-04T09:34:10.962Z,56.82
2022-08-04T09:35:15.334Z,56.10
2022-08-04T09:36:10.995Z,57.59
2022-08-04T09:37:10.957Z,56.80
2022-08-04T09:38:10.948Z,58.77
2022-08-04T09:39:10.989Z,57.61
2022-08-04T09:40:14.482Z,57.49
2022-08-04T09:41:20.558Z,58.74
2022-08-04T09:42:10.965Z,57.56
2022-08-04T09:43:10.938Z,57.53
2022-08-04T09:44:50.860Z,56.35
2022-08-04T09:45:13.402Z,55.98
2022-08-04T09:46:10.928Z,56.48
2022-08-04T09:47:10.990Z,55.19
2022-08-04T09:48:10.929Z,55.36
2022-08-04T09:49:10.936Z,53.71
2022-08-04T09:50:10.931Z,50.83
2022-08-04T09:51:10.929Z,52.31
2022-08-04T09:52:10.935Z,50.42
2022-08-04T09:53:10.990Z,48.61
2022-08-04T09:54:10.933Z,50.46
2022-08-04T09:55:10.932Z,49.48
2022-08-04T09:56:10.953Z,49.48
2022-08-04T09:57:10.931Z,50.56
2022-08-04T09:58:10.961Z,47.09
2022-08-04T09:59:11.032Z,46.80
2022-08-04T10:00:10.967Z,47.36
2022-08-04T10:01:10.938Z,46.97
2022-08-04T10:02:10.937Z,46.88
2022-08-04T10:03:13.642Z,48.82
2022-08-04T10:04:10.964Z,47.76
2022-08-04T10:05:10.944Z,49.43
2022-08-04T10:06:10.942Z,49.31
2022-08-04T10:07:10.968Z,47.76
2022-08-04T10:08:10.995Z,47.17
2022-08-04T10:09:11.000Z,47.44
2022-08-04T10:10:10.949Z,49.11
2022-08-04T10:11:10.967Z,48.91
2022-08-04T10:12:10.950Z,46.85
2022-08-04T10:13:10.956Z,48.33
2022-08-04T10:14:10.953Z,47.05
2022-08-04T10:15:11.015Z,50.27
2022-08-04T10:16:10.969Z,50.44
2022-08-04T10:17:10.976Z,48.47
2022-08-04T10:18:10.964Z,50.46
2022-08-04T10:19:10.980Z,49.19
2022-08-04T10:20:10.968Z,47.22
2022-08-04T10:21:15.505Z,48.18
2022-08-04T10:22:29.962Z,47.69
2022-08-04T10:23:12.281Z,47.20
2022-08-04T10:24:10.978Z,49.26
2022-08-04T10:26:02.723Z,49.16
2022-08-04T10:26:10.983Z,49.43
2022-08-04T10:27:10.985Z,48.65
2022-08-04T10:28:11.036Z,48.74
2022-08-04T10:29:10.999Z,50.68
2022-08-04T10:30:11.003Z,48.72
2022-08-04T10:31:11.037Z,46.59
2022-08-04T10:32:11.022Z,47.06
2022-08-04T10:33:11.008Z,47.06
2022-08-04T10:34:11.007Z,47.25
2022-08-04T10:35:11.011Z,47.64
2022-08-04T10:36:11.013Z,48.72
2022-08-04T10:37:11.053Z,49.04
2022-08-04T10:38:11.068Z,49.43
2022-08-04T10:39:13.731Z,50.61
2022-08-04T10:40:11.145Z,50.83
2022-08-04T10:41:11.033Z,50.56
2022-08-04T10:42:11.030Z,48.91
2022-08-04T10:43:21.904Z,49.99
2022-08-04T10:44:11.080Z,47.74
2022-08-04T10:45:11.041Z,49.01
2022-08-04T10:46:11.052Z,48.79
2022-08-04T10:47:11.046Z,48.89
2022-08-04T10:48:11.048Z,51.54
2022-08-04T10:49:11.085Z,48.40
2022-08-04T10:50:11.049Z,48.89
2022-08-04T10:51:11.060Z,50.66
2022-08-04T10:52:11.057Z,50.46
2022-08-04T10:53:11.076Z,51.67
2022-08-04T10:54:11.060Z,50.37
2022-08-04T10:55:11.083Z,49.87
2022-08-04T10:56:11.085Z,49.97
2022-08-04T10:57:11.073Z,49.08
2022-08-04T10:58:11.058Z,50.46
2022-08-04T10:59:11.084Z,50.49
2022-08-04T11:00:11.063Z,49.48
2022-08-04T11:01:11.092Z,48.21
2022-08-04T11:02:14.947Z,46.81
2022-08-04T11:03:11.108Z,48.67
2022-08-04T11:04:11.100Z,46.39
2022-08-04T11:05:11.060Z,47.17
2022-08-04T11:06:11.058Z,44.82
2022-08-04T11:07:11.054Z,45.21
2022-08-04T11:08:13.561Z,46.69
2022-08-04T11:09:13.945Z,46.78
2022-08-04T11:10:11.058Z,44.53
2022-08-04T11:11:11.054Z,45.31
2022-08-04T11:12:11.062Z,46.30
2022-08-04T11:13:29.397Z,45.90
2022-08-04T11:14:11.058Z,47.37
2022-08-04T11:15:11.049Z,46.66
2022-08-04T11:16:11.076Z,47.77
2022-08-04T11:17:11.065Z,48.16
2022-08-04T11:18:16.962Z,46.20
2022-08-04T11:19:11.042Z,45.41
2022-08-04T11:20:32.221Z,46.20
2022-08-04T11:21:11.053Z,48.70
2022-08-04T11:22:11.043Z,44.80
2022-08-04T11:23:11.058Z,46.95
2022-08-04T11:24:11.051Z,45.76
2022-08-04T11:25:11.060Z,45.86
2022-08-04T11:26:11.059Z,43.02
2022-08-04T11:27:11.028Z,44.58
2022-08-04T11:28:11.035Z,44.78
2022-08-04T11:29:11.025Z,44.78
2022-08-04T11:30:13.305Z,45.66
2022-08-04T11:31:11.021Z,44.78
2022-08-04T11:32:11.026Z,43.99
2022-08-04T11:33:11.073Z,44.90
2022-08-04T11:34:11.018Z,45.39
2022-08-04T11:35:11.020Z,45.88
2022-08-04T11:36:11.014Z,45.51
2022-08-04T11:37:14.141Z,46.59
2022-08-04T11:38:11.009Z,47.17
2022-08-04T11:39:11.076Z,47.47
2022-08-04T11:40:11.099Z,46.95
2022-08-04T11:41:11.042Z,47.13
2022-08-04T11:42:11.010Z,46.72
2022-08-04T11:43:11.001Z,44.85
2022-08-04T11:44:12.713Z,45.07
2022-08-04T11:45:11.019Z,44.68
2022-08-04T11:46:11.008Z,45.25
2022-08-04T11:47:11.000Z,45.44
2022-08-04T11:48:10.992Z,43.46
2022-08-04T11:49:10.989Z,42.07
2022-08-04T11:50:11.006Z,42.25
2022-08-04T11:51:10.998Z,42.03
2022-08-04T11:52:10.987Z,42.09
2022-08-04T11:53:10.993Z,41.99
2022-08-04T11:54:10.983Z,40.14
2022-08-04T11:55:11.031Z,39.36
2022-08-04T11:56:11.487Z,40.04
2022-08-04T11:57:10.984Z,41.23
2022-08-04T11:58:10.986Z,39.78
2022-08-04T11:59:10.984Z,39.78
2022-08-04T12:00:11.237Z,40.56
2022-08-04T12:01:11.011Z,39.88
2022-08-04T12:02:11.061Z,39.04
2022-08-04T12:03:10.991Z,41.70
2022-08-04T12:04:11.023Z,38.37
2022-08-04T12:05:32.386Z,38.67
2022-08-04T12:06:11.037Z,39.23
2022-08-04T12:07:35.396Z,38.26
2022-08-04T12:08:11.015Z,36.77
2022-08-04T12:09:10.991Z,39.43
2022-08-04T12:10:10.987Z,37.47
2022-08-04T12:11:11.019Z,38.16
2022-08-04T12:12:10.989Z,38.26
2022-08-04T12:13:10.989Z,38.47
2022-08-04T12:14:10.985Z,37.88
2022-08-04T12:15:10.984Z,39.54
2022-08-04T12:16:11.032Z,40.23
2022-08-04T12:17:11.009Z,39.84
2022-08-04T12:18:10.982Z,39.92
2022-08-04T12:19:10.983Z,39.22
2022-08-04T12:20:35.697Z,37.26
2022-08-04T12:21:10.978Z,40.00
2022-08-04T12:22:11.041Z,38.24
2022-08-04T12:23:10.980Z,37.93
2022-08-04T12:24:10.973Z,38.24
2022-08-04T12:25:10.994Z,38.24
2022-08-04T12:26:10.970Z,37.75
2022-08-04T12:27:10.973Z,36.57
2022-08-04T12:28:10.996Z,35.21
2022-08-04T12:29:11.643Z,35.69
2022-08-04T12:31:00.157Z,35.99
2022-08-04T12:31:11.820Z,36.08
2022-08-04T12:32:10.962Z,38.24
2022-08-04T12:33:10.983Z,37.16
2022-08-04T12:34:11.011Z,37.35
2022-08-04T12:35:10.969Z,39.80
2022-08-04T12:36:11.858Z,37.55
2022-08-04T12:37:10.949Z,39.70
2022-08-04T12:38:10.949Z,39.22
2022-08-04T12:39:11.008Z,39.80
2022-08-04T12:40:29.188Z,38.73
2022-08-04T12:41:10.941Z,38.24
2022-08-04T12:42:10.942Z,37.85
2022-08-04T12:43:10.970Z,38.92
2022-08-04T12:44:33.417Z,39.61
2022-08-04T12:45:10.941Z,41.17
2022-08-04T12:46:10.975Z,39.29
2022-08-04T12:47:26.544Z,41.27
2022-08-04T12:48:10.933Z,39.02
2022-08-04T12:49:10.954Z,40.19
2022-08-04T12:50:10.950Z,40.39
2022-08-04T12:52:06.469Z,38.94
2022-08-04T12:52:10.942Z,40.11
2022-08-04T12:53:10.940Z,40.31